To NAV CANADA Home Page Login to a new session Search on AWWS site Disclaimer Vers la page française équivalente Tips FAQ What's new on the site To the Forecasts and Observations / NOTAM section To "File a Flight Plan" website Publications and other links Update of the User's profile FIC Telephone Numbers My Weather Data Folder Route Weather Data Regional Weather Data Local Weather Data To the Forecasts and Observations / NOTAM section
Request Generated 08/19/2022 at 01:19:35 UTC . Weather information available at that time is displayed.

METAR/TAF

TORONTO/BILLY BISHOP TORONTO CITY AIRPORT/ON    (show WxCam)

METAR CYTZ 190100Z AUTO 30006KT 220V310 9SM CLR 23/20 A2992 RMK SLP132 DENSITY ALT 1200FT=
METAR CYTZ 190000Z AUTO 08003KT 050V150 9SM FEW120 24/19 A2991 RMK SLP129 DENSITY ALT 1400FT=
METAR CYTZ 182300Z AUTO 17006KT 9SM FEW130 25/19 A2990 RMK LTNG DIST NE E SLP127 DENSITY ALT 1500FT=

TAF CYTZ 181940Z 1820/1920 18010KT P6SM SKC TEMPO 1820/1901 P6SM
-SHRA VCTS OVC050CB
FM190100 VRB03KT P6SM SKC
FM191200 23007KT P6SM SKC
FM191700 18012KT P6SM BKN060
RMK FCST BASED ON AUTO OBS. NXT FCST BY 190200Z
Your time UTC time
Weather data provided by Environment Canada and NAV CANADA